createdAt,value
2023-04-01T00:01:49.608Z,99142.09
2023-04-01T00:04:19.631Z,99142.94
2023-04-01T00:06:49.487Z,99142.09
2023-04-01T00:09:20.092Z,99142.97
2023-04-01T00:11:50.014Z,99139.44
2023-04-01T00:14:19.866Z,99138.56
2023-04-01T00:16:53.665Z,99141.19
2023-04-01T00:19:23.503Z,99142.06
2023-04-01T00:21:53.446Z,99139.44
2023-04-01T00:24:23.258Z,99143.84
2023-04-01T00:26:53.057Z,99149.94
2023-04-01T00:29:22.935Z,99150.81
2023-04-01T00:31:55.393Z,99146.44
2023-04-01T00:34:25.250Z,99143.78
2023-04-01T00:36:55.510Z,99139.41
2023-04-01T00:39:25.489Z,99147.31
2023-04-01T00:41:55.313Z,99142.91
2023-04-01T00:44:28.043Z,99149.94
2023-04-01T00:47:00.762Z,99143.78
2023-04-01T00:49:35.014Z,99149.91
2023-04-01T00:52:07.064Z,99149.91
2023-04-01T00:54:38.488Z,99149.03
2023-04-01T00:57:12.333Z,99149.03
2023-04-01T00:59:48.587Z,99149.00
2023-04-01T01:02:24.196Z,99151.66
2023-04-01T01:04:54.114Z,99139.38
2023-04-01T01:07:32.111Z,99145.53
2023-04-01T01:10:08.036Z,99163.03
2023-04-01T01:12:44.143Z,99149.03
2023-04-01T01:15:24.307Z,99156.00
2023-04-01T01:18:05.428Z,99163.94
2023-04-01T01:20:49.690Z,99153.38
2023-04-01T01:24:06.406Z,99162.16
2023-04-01T01:26:55.088Z,99166.53
2023-04-01T01:29:46.294Z,99163.03
2023-04-01T01:32:29.998Z,99160.38
2023-04-01T01:35:15.314Z,99168.25
2023-04-01T01:37:47.627Z,99163.00
2023-04-01T01:40:19.613Z,99174.38
2023-04-01T01:42:52.493Z,99168.25
2023-04-01T01:45:25.672Z,99171.75
2023-04-01T01:47:56.430Z,99162.09
2023-04-01T01:50:30.508Z,99170.84
2023-04-01T01:53:07.988Z,99174.34
2023-04-01T01:55:43.817Z,99175.19
2023-04-01T01:58:20.520Z,99175.19
2023-04-01T02:00:54.769Z,99176.97
2023-04-01T02:03:27.003Z,99183.06
2023-04-01T02:06:02.121Z,99182.19
2023-04-01T02:08:38.475Z,99179.53
2023-04-01T02:11:11.015Z,99183.91
2023-04-01T02:13:47.011Z,99182.16
2023-04-01T02:16:22.260Z,99187.41
2023-04-01T02:18:55.778Z,99192.66
2023-04-01T02:21:32.409Z,99191.78
2023-04-01T02:24:04.856Z,99196.16
2023-04-01T02:26:37.120Z,99197.91
2023-04-01T02:29:09.519Z,99196.19
2023-04-01T02:31:40.269Z,99193.56
2023-04-01T02:34:10.447Z,99204.97
2023-04-01T02:36:42.921Z,99207.59
2023-04-01T02:39:13.361Z,99211.13
2023-04-01T02:41:43.877Z,99209.38
2023-04-01T02:44:15.110Z,99212.00
2023-04-01T02:46:45.106Z,99210.28
2023-04-01T02:49:15.531Z,99212.03
2023-04-01T02:51:48.025Z,99214.66
2023-04-01T02:54:17.888Z,99223.41
2023-04-01T02:56:51.133Z,99222.53
2023-04-01T02:59:21.055Z,99223.44
2023-04-01T03:01:50.866Z,99228.69
2023-04-01T03:04:22.417Z,99234.78
2023-04-01T03:06:55.101Z,99230.41
2023-04-01T03:09:25.023Z,99235.69
2023-04-01T03:11:54.832Z,99239.16
2023-04-01T03:14:24.730Z,99229.50
2023-04-01T03:16:54.751Z,99240.91
2023-04-01T03:19:24.711Z,99241.78
2023-04-01T03:21:57.197Z,99238.28
2023-04-01T03:24:27.026Z,99241.78
2023-04-01T03:26:56.853Z,99242.66
2023-04-01T03:29:26.770Z,99247.88
2023-04-01T03:31:59.027Z,99252.28
2023-04-01T03:34:28.950Z,99258.41
2023-04-01T03:37:03.326Z,99254.91
2023-04-01T03:39:33.146Z,99263.66
2023-04-01T03:42:03.323Z,99260.16
2023-04-01T03:44:34.944Z,99260.16
2023-04-01T03:47:04.772Z,99258.41
2023-04-01T03:49:34.541Z,99269.78
2023-04-01T03:52:07.245Z,99272.44
2023-04-01T03:54:37.600Z,99266.28
2023-04-01T03:57:10.337Z,99270.66
2023-04-01T03:59:40.393Z,99275.03
2023-04-01T04:02:10.238Z,99276.78
2023-04-01T04:04:40.181Z,99279.44
2023-04-01T04:07:12.669Z,99280.28
2023-04-01T04:09:42.490Z,99283.78
2023-04-01T04:12:13.350Z,99286.41
2023-04-01T04:14:43.146Z,99286.41
2023-04-01T04:17:17.430Z,99292.53
2023-04-01T04:19:47.556Z,99296.03
2023-04-01T04:22:24.356Z,99291.66
2023-04-01T04:24:54.160Z,99297.78
2023-04-01T04:27:24.116Z,99303.91
2023-04-01T04:29:53.960Z,99302.13
2023-04-01T04:32:23.943Z,99302.97
2023-04-01T04:34:53.746Z,99305.59
2023-04-01T04:37:26.984Z,99309.09
2023-04-01T04:39:56.882Z,99314.34
2023-04-01T04:42:29.766Z,99316.97
2023-04-01T04:44:59.653Z,99319.56
2023-04-01T04:47:29.587Z,99324.84
2023-04-01T04:49:59.399Z,99328.34
2023-04-01T04:52:31.922Z,99334.44
2023-04-01T04:55:01.759Z,99330.91
2023-04-01T04:57:33.207Z,99337.88
2023-04-01T05:00:03.078Z,99340.50
2023-04-01T05:02:34.861Z,99340.50
2023-04-01T05:05:05.376Z,99349.28
2023-04-01T05:07:38.185Z,99352.78
2023-04-01T05:10:09.040Z,99351.00
2023-04-01T05:12:40.049Z,99356.25
2023-04-01T05:15:11.478Z,99352.72
2023-04-01T05:17:41.436Z,99358.91
2023-04-01T05:20:12.091Z,99361.53
2023-04-01T05:22:44.544Z,99365.06
2023-04-01T05:25:14.364Z,99372.91
2023-04-01T05:27:44.210Z,99372.03
2023-04-01T05:30:15.691Z,99371.09
2023-04-01T05:32:45.964Z,99379.84
2023-04-01T05:35:15.808Z,99383.34
2023-04-01T05:37:48.303Z,99386.88
2023-04-01T05:40:18.326Z,99389.50
2023-04-01T05:42:48.190Z,99388.66
2023-04-01T05:45:18.852Z,99393.88
2023-04-01T05:47:48.759Z,99393.88
2023-04-01T05:50:19.121Z,99399.97
2023-04-01T05:52:53.838Z,99395.63
2023-04-01T05:55:23.650Z,99401.75
2023-04-01T05:57:54.669Z,99406.16
2023-04-01T06:00:24.657Z,99411.38
2023-04-01T06:02:57.352Z,99418.41
2023-04-01T06:05:29.117Z,99417.56
2023-04-01T06:08:04.858Z,99420.19
2023-04-01T06:10:45.825Z,99429.81
2023-04-01T06:13:27.745Z,99430.69
2023-04-01T06:22:34.812Z,99443.84
2023-04-01T06:25:22.185Z,99453.50
2023-04-01T06:28:08.876Z,99451.78
2023-04-01T06:30:44.807Z,99464.06
2023-04-01T06:33:36.227Z,99459.72
2023-04-01T06:36:32.192Z,99463.28
2023-04-01T06:39:23.619Z,99477.31
2023-04-01T06:42:23.705Z,99474.75
2023-04-01T06:45:19.119Z,99482.66
2023-04-01T06:48:08.003Z,99485.34
2023-04-01T06:50:43.582Z,99484.53
2023-04-01T06:53:20.572Z,99493.34
2023-04-01T06:55:53.189Z,99490.78
2023-04-01T06:58:29.423Z,99493.50
2023-04-01T07:01:03.482Z,99495.28
2023-04-01T07:03:37.467Z,99496.19
2023-04-01T07:06:10.117Z,99497.94
2023-04-01T07:08:49.646Z,99506.69
2023-04-01T07:11:28.521Z,99512.84
2023-04-01T07:14:05.492Z,99514.56
2023-04-01T07:16:39.249Z,99528.44
2023-04-01T07:19:17.382Z,99523.94
2023-04-01T07:21:52.565Z,99542.28
2023-04-01T07:24:29.648Z,99537.88
2023-04-01T07:27:01.365Z,99547.44
2023-04-01T07:29:33.834Z,99549.25
2023-04-01T07:32:17.812Z,99544.84
2023-04-01T07:35:09.376Z,99551.03
2023-04-01T07:37:46.620Z,99560.66
2023-04-01T07:40:27.271Z,99558.88
2023-04-01T07:43:23.582Z,99570.19
2023-04-01T07:46:02.018Z,99570.19
2023-04-01T07:48:37.234Z,99577.19
2023-04-01T07:51:17.126Z,99585.19
2023-04-01T07:53:53.709Z,99584.31
2023-04-01T07:56:31.658Z,99595.66
2023-04-01T07:59:11.419Z,99589.50
2023-04-01T08:01:51.606Z,99597.44
2023-04-01T08:04:39.486Z,99612.38
2023-04-01T08:07:15.649Z,99606.22
2023-04-01T08:09:56.108Z,99620.19
2023-04-01T08:12:36.284Z,99625.31
2023-04-01T08:15:17.602Z,99641.03
2023-04-01T08:18:04.157Z,99628.75
2023-04-01T08:20:41.440Z,99625.25
2023-04-01T08:23:18.987Z,99634.00
2023-04-01T08:25:55.785Z,99634.03
2023-04-01T08:28:32.084Z,99655.84
2023-04-01T08:31:07.309Z,99647.88
2023-04-01T08:33:40.897Z,99652.97
2023-04-01T08:36:14.634Z,99648.53
2023-04-01T08:38:48.949Z,99664.31
2023-04-01T08:41:59.146Z,99662.63
2023-04-01T08:44:43.627Z,99673.22
2023-04-01T08:47:33.813Z,99683.88
2023-04-01T08:50:35.379Z,99688.34
2023-04-01T08:53:16.723Z,99685.81
2023-04-01T08:56:04.536Z,99712.09
2023-04-01T08:58:52.497Z,99699.75
2023-04-01T09:01:36.022Z,99698.69
2023-04-01T09:04:36.761Z,99719.69
2023-04-01T09:07:29.757Z,99717.88
2023-04-01T09:10:32.144Z,99726.34
2023-04-01T09:13:18.791Z,99735.91
2023-04-01T09:16:10.154Z,99725.31
2023-04-01T09:19:01.384Z,99749.00
2023-04-01T09:22:01.998Z,99735.03
2023-04-01T09:24:56.356Z,99757.00
2023-04-01T09:27:37.229Z,99757.84
2023-04-01T09:30:32.582Z,99750.75
2023-04-01T09:33:27.815Z,99755.13
2023-04-01T09:36:08.746Z,99773.47
2023-04-01T09:38:53.802Z,99758.66
2023-04-01T09:41:33.587Z,99773.56
2023-04-01T09:44:06.653Z,99775.34
2023-04-01T09:46:52.637Z,99790.19
2023-04-01T09:49:47.696Z,99800.69
2023-04-01T09:52:29.080Z,99797.06
2023-04-01T09:55:28.048Z,99794.34
2023-04-01T09:58:34.208Z,99816.22
2023-04-01T10:01:57.443Z,99806.53
2023-04-01T10:04:58.639Z,99823.75
2023-04-01T10:08:07.223Z,99830.63
2023-04-01T10:11:03.257Z,99828.00
2023-04-01T10:14:17.568Z,99830.47
2023-04-01T10:17:26.784Z,99847.88
2023-04-01T10:20:31.258Z,99849.41
2023-04-01T10:23:19.377Z,99867.75
2023-04-01T10:26:22.724Z,99852.06
2023-04-01T10:29:11.887Z,99864.34
2023-04-01T10:32:21.957Z,99870.34
2023-04-01T10:35:32.517Z,99881.59
2023-04-01T10:38:31.617Z,99871.09
2023-04-01T10:41:26.065Z,99872.03
2023-04-01T10:44:26.971Z,99880.00
2023-04-01T10:47:30.577Z,99880.19
2023-04-01T10:50:20.288Z,99874.09
2023-04-01T10:53:29.438Z,99884.56
2023-04-01T10:56:27.398Z,99891.63
2023-04-01T10:59:37.222Z,99892.50
2023-04-01T11:02:37.106Z,99900.47
2023-04-01T11:05:44.041Z,99902.97
2023-04-01T11:08:55.456Z,99911.78
2023-04-01T11:11:50.007Z,99910.88
2023-04-01T11:14:48.692Z,99930.06
2023-04-01T11:17:48.674Z,99921.38
2023-04-01T11:20:46.563Z,99924.00
2023-04-01T11:23:33.530Z,99916.91
2023-04-01T11:26:13.594Z,99934.38
2023-04-01T11:29:13.719Z,99937.91
2023-04-01T11:31:59.161Z,99940.72
2023-04-01T11:34:47.196Z,99945.28
2023-04-01T11:37:31.147Z,99959.34
2023-04-01T11:40:12.470Z,99969.84
2023-04-01T11:42:53.649Z,99955.84
2023-04-01T11:45:36.476Z,99966.34
2023-04-01T11:48:36.873Z,99971.47
2023-04-01T11:51:26.272Z,99974.06
2023-04-01T11:54:07.781Z,99982.91
2023-04-01T11:56:55.081Z,100008.28
2023-04-01T11:59:48.284Z,99987.34
2023-04-01T12:02:26.968Z,99994.47
2023-04-01T12:05:18.842Z,100004.22
2023-04-01T12:08:14.379Z,100007.72
2023-04-01T12:10:57.233Z,100006.00
2023-04-01T12:13:42.454Z,100025.22
2023-04-01T12:16:28.318Z,100022.47
2023-04-01T12:19:05.152Z,100034.69
2023-04-01T12:21:40.693Z,100043.28
2023-04-01T12:24:48.818Z,100065.00
2023-04-01T12:27:48.032Z,100049.13
2023-04-01T12:30:51.653Z,100055.31
2023-04-01T12:33:44.513Z,100071.13
2023-04-01T12:36:24.992Z,100069.31
2023-04-01T12:39:13.139Z,100075.31
2023-04-01T12:41:49.635Z,100077.13
2023-04-01T12:44:45.998Z,100062.28
2023-04-01T12:47:59.957Z,100078.94
2023-04-01T12:50:38.723Z,100085.13
2023-04-01T12:53:29.062Z,100103.38
2023-04-01T12:56:00.920Z,100095.25
2023-04-01T12:59:21.613Z,100107.41
2023-04-01T13:02:10.486Z,100103.72
2023-04-01T13:04:55.344Z,100130.69
2023-04-01T13:07:43.819Z,100123.66
2023-04-01T13:10:24.212Z,100124.63
2023-04-01T13:13:10.898Z,100122.91
2023-04-01T13:15:47.640Z,100143.88
2023-04-01T13:18:29.319Z,100142.06
2023-04-01T13:21:10.066Z,100162.09
2023-04-01T13:23:59.091Z,100150.81
2023-04-01T13:26:35.084Z,100149.09
2023-04-01T13:29:14.030Z,100183.97
2023-04-01T13:31:57.848Z,100172.47
2023-04-01T13:34:53.776Z,100169.75
2023-04-01T13:37:37.920Z,100176.69
2023-04-01T13:40:25.790Z,100190.75
2023-04-01T13:43:04.205Z,100191.63
2023-04-01T13:45:45.098Z,100205.63
2023-04-01T13:48:39.440Z,100198.41
2023-04-01T13:51:30.623Z,100211.47
2023-04-01T13:54:31.182Z,100206.22
2023-04-01T13:57:18.766Z,100212.88
2023-04-01T14:00:06.505Z,100227.78
2023-04-01T14:02:56.089Z,100216.25
2023-04-01T14:05:48.725Z,100249.47
2023-04-01T14:08:40.025Z,100224.06
2023-04-01T14:11:20.694Z,100238.91
2023-04-01T14:14:00.642Z,100260.94
2023-04-01T14:16:49.199Z,100253.91
2023-04-01T14:19:33.245Z,100267.94
2023-04-01T14:22:17.326Z,100268.72
2023-04-01T14:25:07.311Z,100261.66
2023-04-01T14:27:57.896Z,100272.88
2023-04-01T14:30:44.088Z,100278.91
2023-04-01T14:33:27.840Z,100295.28
2023-04-01T14:36:12.356Z,100289.88
2023-04-01T14:38:58.941Z,100312.59
2023-04-01T14:41:46.690Z,100319.47
2023-04-01T14:44:46.630Z,100315.81
2023-04-01T14:47:32.591Z,100321.63
2023-04-01T14:50:10.823Z,100326.63
2023-04-01T14:52:44.261Z,100330.81
2023-04-01T14:55:36.804Z,100342.09
2023-04-01T14:58:17.454Z,100346.16
2023-04-01T15:01:03.208Z,100353.03
2023-04-01T15:03:36.547Z,100357.94
2023-04-01T15:06:36.537Z,100370.75
2023-04-01T15:09:15.771Z,100386.38
2023-04-01T15:11:58.789Z,100366.19
2023-04-01T15:14:58.438Z,100378.38
2023-04-01T15:17:47.011Z,100396.59
2023-04-01T15:20:37.508Z,100383.34
2023-04-01T15:23:21.063Z,100385.13
2023-04-01T15:26:13.205Z,100388.63
2023-04-01T15:28:55.113Z,100405.22
2023-04-01T15:31:30.064Z,100406.09
2023-04-01T15:34:27.145Z,100421.72
2023-04-01T15:37:04.041Z,100420.75
2023-04-01T15:39:46.181Z,100437.28
2023-04-01T15:42:26.151Z,100430.19
2023-04-01T15:45:11.330Z,100431.03
2023-04-01T15:47:45.347Z,100452.75
2023-04-01T15:50:42.816Z,100463.00
2023-04-01T15:53:27.536Z,100464.53
2023-04-01T15:56:03.355Z,100472.22
2023-04-01T15:58:52.116Z,100478.38
2023-04-01T16:01:31.410Z,100489.63
2023-04-01T16:04:20.069Z,100495.53
2023-04-01T16:07:11.609Z,100496.19
2023-04-01T16:09:59.881Z,100507.22
2023-04-01T16:12:45.077Z,100528.91
2023-04-01T16:15:27.284Z,100516.44
2023-04-01T16:18:19.901Z,100515.72
2023-04-01T16:20:56.762Z,100531.44
2023-04-01T16:23:38.947Z,100526.13
2023-04-01T16:26:16.933Z,100532.41
2023-04-01T16:28:57.162Z,100546.16
2023-04-01T16:31:42.269Z,100545.84
2023-04-01T16:34:19.484Z,100561.47
2023-04-01T16:36:55.546Z,100562.19
2023-04-01T16:39:42.351Z,100568.13
2023-04-01T16:42:29.128Z,100573.34
2023-04-01T16:45:09.078Z,100575.00
2023-04-01T16:47:44.285Z,100589.03
2023-04-01T16:50:23.115Z,100592.38
2023-04-01T16:53:02.371Z,100591.34
2023-04-01T16:55:54.295Z,100613.09
2023-04-01T16:58:29.812Z,100605.13
2023-04-01T17:01:05.780Z,100622.47
2023-04-01T17:03:44.457Z,100623.22
2023-04-01T17:06:32.027Z,100631.66
2023-04-01T17:09:16.856Z,100632.25
2023-04-01T17:11:57.627Z,100641.88
2023-04-01T17:14:34.595Z,100643.47
2023-04-01T17:17:21.287Z,100649.50
2023-04-01T17:20:10.425Z,100667.69
2023-04-01T17:22:48.739Z,100671.94
2023-04-01T17:25:36.375Z,100676.91
2023-04-01T17:28:22.024Z,100682.13
2023-04-01T17:31:01.751Z,100689.81
2023-04-01T17:33:47.200Z,100692.59
2023-04-01T17:36:30.652Z,100691.59
2023-04-01T17:39:30.445Z,100709.06
2023-04-01T17:42:10.091Z,100705.47
2023-04-01T17:44:54.298Z,100716.88
2023-04-01T17:47:42.886Z,100721.13
2023-04-01T17:50:30.899Z,100733.31
2023-04-01T17:53:18.253Z,100736.72
2023-04-01T17:56:07.197Z,100751.59
2023-04-01T17:58:44.853Z,100748.97
2023-04-01T18:01:36.941Z,100769.81
2023-04-01T18:04:36.822Z,100767.09
2023-04-01T18:07:46.956Z,100780.03
2023-04-01T18:10:32.652Z,100787.75
2023-04-01T18:13:35.248Z,100798.09
2023-04-01T18:16:19.331Z,100793.63
2023-04-01T18:19:03.507Z,100832.78
2023-04-01T18:21:45.147Z,100820.47
2023-04-01T18:24:22.524Z,100834.13
2023-04-01T18:27:03.332Z,100834.94
2023-04-01T18:29:43.162Z,100837.38
2023-04-01T18:32:29.722Z,100832.91
2023-04-01T18:35:21.687Z,100858.16
2023-04-01T18:37:58.826Z,100870.16
2023-04-01T18:40:36.493Z,100883.28
2023-04-01T18:43:24.919Z,100867.69
2023-04-01T18:46:03.599Z,100880.69
2023-04-01T18:48:50.419Z,100894.63
2023-04-01T18:51:28.478Z,100898.81
2023-04-01T18:54:02.964Z,100915.16
2023-04-01T18:56:38.016Z,100898.59
2023-04-01T18:59:13.591Z,100909.84
2023-04-01T19:01:52.870Z,100911.41
2023-04-01T19:04:32.068Z,100933.13
2023-04-01T19:07:40.875Z,100931.25
2023-04-01T19:10:19.656Z,100956.25
2023-04-01T19:12:58.567Z,100937.97
2023-04-01T19:15:43.611Z,100942.09
2023-04-01T19:18:40.905Z,100964.72
2023-04-01T19:21:18.137Z,100959.34
2023-04-01T19:24:23.161Z,100975.06
2023-04-01T19:27:00.820Z,100979.25
2023-04-01T19:29:47.116Z,100984.31
2023-04-01T19:32:29.090Z,100986.69
2023-04-01T19:35:11.152Z,100992.63
2023-04-01T19:37:44.548Z,101005.59
2023-04-01T19:40:47.607Z,101026.56
2023-04-01T19:43:29.661Z,101015.97
2023-04-01T19:46:06.307Z,101017.59
2023-04-01T19:48:47.267Z,101023.44
2023-04-01T19:51:26.779Z,101036.19
2023-04-01T19:54:03.188Z,101028.16
2023-04-01T19:56:45.401Z,101054.16
2023-04-01T19:59:25.194Z,101050.47
2023-04-01T20:02:03.367Z,101055.50
2023-04-01T20:04:38.653Z,101052.84
2023-04-01T20:07:13.191Z,101070.38
2023-04-01T20:10:04.373Z,101072.06
2023-04-01T20:12:50.024Z,101074.59
2023-04-01T20:15:34.113Z,101084.22
2023-04-01T20:18:07.166Z,101080.88
2023-04-01T20:20:38.560Z,101097.63
2023-04-01T20:23:25.187Z,101089.72
2023-04-01T20:25:58.791Z,101099.16
2023-04-01T20:28:37.581Z,101108.59
2023-04-01T20:31:31.412Z,101128.06
2023-04-01T20:34:30.440Z,101115.72
2023-04-01T20:37:26.311Z,101122.59
2023-04-01T20:40:24.371Z,101134.38
2023-04-01T20:43:17.184Z,101158.59
2023-04-01T20:45:58.769Z,101154.19
2023-04-01T20:48:44.893Z,101157.41
2023-04-01T20:51:18.334Z,101161.56
2023-04-01T20:53:55.116Z,101157.25
2023-04-01T20:56:51.694Z,101157.25
2023-04-01T20:59:37.623Z,101166.78
2023-04-01T21:02:36.500Z,101178.19
2023-04-01T21:05:32.113Z,101171.06
2023-04-01T21:08:11.876Z,101180.56
2023-04-01T21:10:46.414Z,101196.09
2023-04-01T21:13:35.036Z,101200.50
2023-04-01T21:16:31.812Z,101203.13
2023-04-01T21:19:22.801Z,101212.47
2023-04-01T21:22:24.066Z,101205.47
2023-04-01T21:25:07.811Z,101211.13
2023-04-01T21:28:03.881Z,101218.97
2023-04-01T21:30:45.206Z,101216.34
2023-04-01T21:33:40.684Z,101227.50
2023-04-01T21:36:27.472Z,101222.19
2023-04-01T21:39:17.505Z,101240.44
2023-04-01T21:42:02.737Z,101249.88
2023-04-01T21:45:02.391Z,101258.34
2023-04-01T21:48:12.707Z,101268.78
2023-04-01T21:50:49.593Z,101285.84
2023-04-01T21:53:58.349Z,101271.81
2023-04-01T21:57:08.549Z,101278.34
2023-04-01T22:00:06.657Z,101302.63
2023-04-01T22:03:26.138Z,101294.09
2023-04-01T22:06:07.016Z,101312.06
2023-04-01T22:08:57.596Z,101305.94
2023-04-01T22:11:40.374Z,101315.50
2023-04-01T22:14:20.120Z,101317.81
2023-04-01T22:16:55.201Z,101322.78
2023-04-01T22:19:30.687Z,101335.56
2023-04-01T22:22:05.687Z,101339.47
2023-04-01T22:24:46.268Z,101336.38
2023-04-01T22:27:29.007Z,101360.44
2023-04-01T22:30:10.681Z,101344.41
2023-04-01T22:32:47.479Z,101355.44
2023-04-01T22:35:38.823Z,101362.75
2023-04-01T22:38:23.472Z,101373.81
2023-04-01T22:41:03.258Z,101360.47
2023-04-01T22:43:41.090Z,101372.38
2023-04-01T22:46:30.501Z,101382.91
2023-04-01T22:49:06.346Z,101375.66
2023-04-01T22:51:46.228Z,101382.41
2023-04-01T22:54:23.644Z,101384.81
2023-04-01T22:56:58.148Z,101390.19
2023-04-01T22:59:39.023Z,101386.16
2023-04-01T23:02:15.773Z,101403.09
2023-04-01T23:04:47.696Z,101405.56
2023-04-01T23:07:36.612Z,101404.69
2023-04-01T23:10:10.060Z,101417.59
2023-04-01T23:12:40.068Z,101425.38
2023-04-01T23:15:17.516Z,101418.50
2023-04-01T23:18:09.111Z,101432.19
2023-04-01T23:20:57.947Z,101429.19
2023-04-01T23:23:46.877Z,101442.00
2023-04-01T23:26:22.522Z,101450.38
2023-04-01T23:28:54.925Z,101450.97
2023-04-01T23:31:39.533Z,101459.25
2023-04-01T23:34:29.654Z,101468.97
2023-04-01T23:37:01.922Z,101468.88
2023-04-01T23:39:35.956Z,101483.34
2023-04-01T23:42:09.026Z,101483.13
2023-04-01T23:44:40.129Z,101487.44
2023-04-01T23:47:19.817Z,101488.13
2023-04-01T23:49:52.182Z,101505.53
2023-04-01T23:52:27.699Z,101502.84
2023-04-01T23:55:03.119Z,101523.66
2023-04-01T23:57:34.452Z,101521.75
